Lutton, United Kingdom

9:30 AM BST on April 26, 2017 (GMT +0100)
Holbeach | | Change Station

Elev 10 ft 52.87 °N, 0.15 °E | Updated 40 minutes ago

Scattered Clouds
Scattered Clouds
41 °F
Feels Like 31 °F
N
22
Wind Variable Wind from NNW

Today
High -- | Low -- °F
--% Chance of Precip.
Yesterday
High -- | Low -- °F
Precip. -- in
Pressure 30.04 in
Visibility 6.2 miles
Clouds Scattered Clouds 1000 ft
Windchill 31 °F
Dew Point 39 °F
Humidity 93%
Rainfall 0.00 in
Snow Depth Not available.
5:36 AM 8:18 PM
Waning Crescent, 0% visible
METAR EGYH 260750Z 34019KT 9999 SCT010 05/04 Q1017 GRN
Pressure 30.04 in
Visibility 6.2 miles
Clouds Scattered Clouds 1000 ft
Windchill 31 °F
Dew Point 39 °F
Humidity 93%
Rainfall 0.00 in
Snow Depth Not available.
5:36 AM 8:18 PM
Waning Crescent, 0% visible
METAR EGYH 260750Z 34019KT 9999 SCT010 05/04 Q1017 GRN

Get Severe Weather Alerts

Thanks for signing up!

Be on the lookout for a verification email in your inbox.

You'll start receiving the daily forecast at 8 AM.

×

10-Day Weather Forecast

×

Almanac

Astronomy

Apr. 26, 2017 Rise Set
Actual Time
Civil Twilight
Nautical Twilight
Astronomical Twilight
Moon
Length of Visible Light
Length of Day
Tomorrow will be .
, % of the Moon is Illuminated

Today's Extremes

Country Highs Country Lows

Community

WunderPhotos

WunderBlog® & News

Nearby

Air Quality

  Air Quality AQ Index Pollutant
Not available.

Snow Depth

Station Depth Elevation

Earthquake Activity

City Distance Mag. Time & Date
Minimum magnitude displayed is 2.5.

Coastal Water Temperatures

Place Temperature

Stations

Nearby Weather Stations

Station Location Temp. Windchill Dew Point Humidity Wind Precip. Elev Updated Type